createdAt,value
2024-02-13T00:00:49.340Z,1004.35
2024-02-13T00:01:49.263Z,1004.32
2024-02-13T00:02:49.465Z,1004.33
2024-02-13T00:03:49.400Z,1004.34
2024-02-13T00:04:49.235Z,1004.33
2024-02-13T00:05:49.273Z,1004.36
2024-02-13T00:06:49.210Z,1004.39
2024-02-13T00:07:49.206Z,1004.33
2024-02-13T00:08:49.353Z,1004.39
2024-02-13T00:09:49.162Z,1004.41
2024-02-13T00:10:49.161Z,1004.45
2024-02-13T00:11:49.182Z,1004.43
2024-02-13T00:12:49.138Z,1004.41
2024-02-13T00:13:49.124Z,1004.41
2024-02-13T00:14:49.150Z,1004.38
2024-02-13T00:15:49.102Z,1004.39
2024-02-13T00:16:49.101Z,1004.41
2024-02-13T00:17:49.185Z,1004.42
2024-02-13T00:18:49.233Z,1004.44
2024-02-13T00:19:49.110Z,1004.45
2024-02-13T00:20:49.127Z,1004.47
2024-02-13T00:21:49.004Z,1004.46
2024-02-13T00:22:49.065Z,1004.47
2024-02-13T00:23:49.185Z,1004.50
2024-02-13T00:24:48.987Z,1004.50
2024-02-13T00:25:48.989Z,1004.48
2024-02-13T00:26:48.998Z,1004.50
2024-02-13T00:27:48.949Z,1004.47
2024-02-13T00:28:48.932Z,1004.50
2024-02-13T00:29:48.975Z,1004.51
2024-02-13T00:30:48.904Z,1004.52
2024-02-13T00:31:48.916Z,1004.50
2024-02-13T00:32:48.948Z,1004.54
2024-02-13T00:33:49.012Z,1004.53
2024-02-13T00:34:48.905Z,1004.55
2024-02-13T00:35:48.939Z,1004.56
2024-02-13T00:36:48.848Z,1004.60
2024-02-13T00:37:48.824Z,1004.58
2024-02-13T00:38:48.910Z,1004.62
2024-02-13T00:39:48.814Z,1004.63
2024-02-13T00:40:48.783Z,1004.63
2024-02-13T00:41:49.048Z,1004.63
2024-02-13T00:42:48.745Z,1004.62
2024-02-13T00:43:49.455Z,1004.65
2024-02-13T00:44:48.772Z,1004.64
2024-02-13T00:45:48.862Z,1004.73
2024-02-13T00:46:48.757Z,1004.74
2024-02-13T00:47:48.831Z,1004.68
2024-02-13T00:48:48.836Z,1004.71
2024-02-13T00:49:48.708Z,1004.70
2024-02-13T00:50:48.769Z,1004.73
2024-02-13T00:51:48.693Z,1004.76
2024-02-13T00:52:48.671Z,1004.74
2024-02-13T00:53:48.772Z,1004.79
2024-02-13T00:54:48.695Z,1004.74
2024-02-13T00:55:48.601Z,1004.78
2024-02-13T00:56:48.742Z,1004.80
2024-02-13T00:57:48.655Z,1004.85
2024-02-13T00:58:48.680Z,1004.88
2024-02-13T00:59:48.627Z,1004.91
2024-02-13T01:00:48.698Z,1004.91
2024-02-13T01:01:48.532Z,1004.86
2024-02-13T01:02:48.648Z,1004.88
2024-02-13T01:03:48.525Z,1004.87
2024-02-13T01:04:48.661Z,1004.82
2024-02-13T01:05:48.502Z,1004.88
2024-02-13T01:06:48.525Z,1004.90
2024-02-13T01:07:48.441Z,1004.89
2024-02-13T01:08:48.464Z,1004.96
2024-02-13T01:09:48.412Z,1004.95
2024-02-13T01:10:48.411Z,1005.05
2024-02-13T01:11:48.518Z,1005.04
2024-02-13T01:12:48.388Z,1005.04
2024-02-13T01:13:48.359Z,1005.03
2024-02-13T01:14:48.394Z,1005.05
2024-02-13T01:15:48.358Z,1005.00
2024-02-13T01:16:48.342Z,1005.01
2024-02-13T01:17:48.446Z,1005.03
2024-02-13T01:18:48.384Z,1005.08
2024-02-13T01:19:48.395Z,1005.04
2024-02-13T01:20:48.337Z,1005.10
2024-02-13T01:21:48.270Z,1005.06
2024-02-13T01:22:48.261Z,1005.08
2024-02-13T01:23:48.319Z,1005.07
2024-02-13T01:24:48.237Z,1005.12
2024-02-13T01:25:48.218Z,1005.16
2024-02-13T01:26:48.305Z,1005.15
2024-02-13T01:27:48.197Z,1005.15
2024-02-13T01:28:48.196Z,1005.17
2024-02-13T01:29:48.227Z,1005.19
2024-02-13T01:30:48.169Z,1005.19
2024-02-13T01:31:48.160Z,1005.18
2024-02-13T01:32:48.170Z,1005.21
2024-02-13T01:33:48.237Z,1005.18
2024-02-13T01:34:48.187Z,1005.20
2024-02-13T01:35:48.163Z,1005.23
2024-02-13T01:36:48.111Z,1005.21
2024-02-13T01:37:48.102Z,1005.22
2024-02-13T01:38:48.126Z,1005.22
2024-02-13T01:39:48.074Z,1005.17
2024-02-13T01:40:48.033Z,1005.22
2024-02-13T01:41:48.072Z,1005.24
2024-02-13T01:42:48.063Z,1005.23
2024-02-13T01:43:47.991Z,1005.28
2024-02-13T01:44:48.069Z,1005.27
2024-02-13T01:45:47.968Z,1005.31
2024-02-13T01:46:47.973Z,1005.27
2024-02-13T01:47:48.094Z,1005.34
2024-02-13T01:48:48.038Z,1005.39
2024-02-13T01:49:47.911Z,1005.36
2024-02-13T01:50:47.926Z,1005.42
2024-02-13T01:51:47.907Z,1005.37
2024-02-13T01:52:47.899Z,1005.42
2024-02-13T01:53:47.949Z,1005.43
2024-02-13T01:54:47.912Z,1005.42
2024-02-13T01:55:47.846Z,1005.42
2024-02-13T01:56:47.989Z,1005.41
2024-02-13T01:57:47.828Z,1005.40
2024-02-13T01:58:47.813Z,1005.47
2024-02-13T01:59:47.824Z,1005.42
2024-02-13T02:00:47.790Z,1005.45
2024-02-13T02:01:47.774Z,1005.42
2024-02-13T02:02:47.886Z,1005.47
2024-02-13T02:03:47.797Z,1005.45
2024-02-13T02:04:47.748Z,1005.46
2024-02-13T02:05:47.798Z,1005.42
2024-02-13T02:06:47.738Z,1005.46
2024-02-13T02:07:47.714Z,1005.46
2024-02-13T02:08:47.768Z,1005.41
2024-02-13T02:09:47.686Z,1005.44
2024-02-13T02:10:47.714Z,1005.46
2024-02-13T02:11:47.667Z,1005.39
2024-02-13T02:12:47.633Z,1005.41
2024-02-13T02:13:47.649Z,1005.42
2024-02-13T02:14:47.634Z,1005.44
2024-02-13T02:15:47.598Z,1005.41
2024-02-13T02:16:47.642Z,1005.44
2024-02-13T02:17:47.674Z,1005.43
2024-02-13T02:18:47.733Z,1005.42
2024-02-13T02:19:47.563Z,1005.41
2024-02-13T02:20:47.608Z,1005.44
2024-02-13T02:21:47.515Z,1005.40
2024-02-13T02:22:47.533Z,1005.41
2024-02-13T02:23:47.527Z,1005.39
2024-02-13T02:24:47.477Z,1005.45
2024-02-13T02:25:47.499Z,1005.39
2024-02-13T02:26:47.517Z,1005.35
2024-02-13T02:27:47.443Z,1005.33
2024-02-13T02:28:47.441Z,1005.36
2024-02-13T02:29:47.502Z,1005.40
2024-02-13T02:30:47.564Z,1005.45
2024-02-13T02:31:47.397Z,1005.43
2024-02-13T02:32:47.494Z,1005.43
2024-02-13T02:33:48.203Z,1005.43
2024-02-13T02:34:47.439Z,1005.43
2024-02-13T02:35:47.463Z,1005.41
2024-02-13T02:36:47.361Z,1005.39
2024-02-13T02:37:47.320Z,1005.44
2024-02-13T02:38:47.331Z,1005.45
2024-02-13T02:39:47.287Z,1005.46
2024-02-13T02:40:47.299Z,1005.48
2024-02-13T02:41:47.325Z,1005.45
2024-02-13T02:42:47.261Z,1005.55
2024-02-13T02:43:47.316Z,1005.57
2024-02-13T02:44:47.292Z,1005.58
2024-02-13T02:45:47.218Z,1005.56
2024-02-13T02:46:47.239Z,1005.59
2024-02-13T02:47:47.246Z,1005.64
2024-02-13T02:48:47.282Z,1005.62
2024-02-13T02:49:47.255Z,1005.67
2024-02-13T02:50:47.188Z,1005.72
2024-02-13T02:51:47.158Z,1005.69
2024-02-13T02:52:47.159Z,1005.65
2024-02-13T02:53:47.137Z,1005.66
2024-02-13T02:54:47.113Z,1005.77
2024-02-13T02:55:47.088Z,1005.69
2024-02-13T02:56:47.274Z,1005.75
2024-02-13T02:57:47.113Z,1005.73
2024-02-13T02:58:47.103Z,1005.77
2024-02-13T02:59:47.098Z,1005.71
2024-02-13T03:00:47.072Z,1005.71
2024-02-13T03:01:47.024Z,1005.71
2024-02-13T03:02:47.080Z,1005.71
2024-02-13T03:03:47.029Z,1005.70
2024-02-13T03:04:47.099Z,1005.73
2024-02-13T03:05:47.058Z,1005.73
2024-02-13T03:06:47.031Z,1005.71
2024-02-13T03:07:47.401Z,1005.73
2024-02-13T03:08:47.053Z,1005.73
2024-02-13T03:09:46.936Z,1005.73
2024-02-13T03:10:46.904Z,1005.82
2024-02-13T03:11:46.944Z,1005.75
2024-02-13T03:12:46.890Z,1005.74
2024-02-13T03:13:46.872Z,1005.71
2024-02-13T03:14:46.920Z,1005.75
2024-02-13T03:15:46.876Z,1005.75
2024-02-13T03:16:46.876Z,1005.68
2024-02-13T03:17:46.905Z,1005.68
2024-02-13T03:18:46.938Z,1005.67
2024-02-13T03:19:46.857Z,1005.66
2024-02-13T03:20:46.832Z,1005.71
2024-02-13T03:21:46.766Z,1005.66
2024-02-13T03:22:46.779Z,1005.70
2024-02-13T03:23:46.790Z,1005.77
2024-02-13T03:24:46.737Z,1005.74
2024-02-13T03:25:46.722Z,1005.74
2024-02-13T03:26:46.780Z,1005.68
2024-02-13T03:27:46.699Z,1005.71
2024-02-13T03:28:46.705Z,1005.72
2024-02-13T03:29:46.741Z,1005.72
2024-02-13T03:30:46.659Z,1005.73
2024-02-13T03:31:46.652Z,1005.74
2024-02-13T03:32:46.753Z,1005.70
2024-02-13T03:33:46.795Z,1005.75
2024-02-13T03:34:46.675Z,1005.74
2024-02-13T03:35:46.634Z,1005.74
2024-02-13T03:36:46.614Z,1005.73
2024-02-13T03:37:46.593Z,1005.73
2024-02-13T03:38:46.580Z,1005.72
2024-02-13T03:39:46.555Z,1005.75
2024-02-13T03:40:46.546Z,1005.72
2024-02-13T03:41:46.639Z,1005.71
2024-02-13T03:42:46.674Z,1005.73
2024-02-13T03:43:46.492Z,1005.69
2024-02-13T03:44:46.674Z,1005.67
2024-02-13T03:45:46.499Z,1005.70
2024-02-13T03:46:46.501Z,1005.71
2024-02-13T03:47:46.641Z,1005.71
2024-02-13T03:48:46.597Z,1005.70
2024-02-13T03:49:46.487Z,1005.69
2024-02-13T03:50:46.461Z,1005.78
2024-02-13T03:51:46.402Z,1005.75
2024-02-13T03:52:46.388Z,1005.70
2024-02-13T03:53:46.569Z,1005.73
2024-02-13T03:54:46.376Z,1005.75
2024-02-13T03:55:46.360Z,1005.70
2024-02-13T03:56:46.399Z,1005.75
2024-02-13T03:57:46.328Z,1005.80
2024-02-13T03:58:46.335Z,1005.77
2024-02-13T03:59:46.349Z,1005.72
2024-02-13T04:00:46.308Z,1005.79
2024-02-13T04:01:46.303Z,1005.83
2024-02-13T04:02:46.330Z,1005.78
2024-02-13T04:03:46.277Z,1005.83
2024-02-13T04:04:46.272Z,1005.81
2024-02-13T04:05:46.307Z,1005.79
2024-02-13T04:06:46.283Z,1005.84
2024-02-13T04:07:46.208Z,1005.84
2024-02-13T04:08:46.274Z,1005.77
2024-02-13T04:09:46.176Z,1005.83
2024-02-13T04:10:46.165Z,1005.83
2024-02-13T04:11:46.268Z,1005.82
2024-02-13T04:12:46.133Z,1005.86
2024-02-13T04:13:46.127Z,1005.88
2024-02-13T04:14:46.162Z,1005.86
2024-02-13T04:15:46.096Z,1005.83
2024-02-13T04:16:47.676Z,1005.84
2024-02-13T04:17:47.684Z,1005.88
2024-02-13T04:18:46.704Z,1005.86
2024-02-13T04:19:46.155Z,1005.85
2024-02-13T04:20:46.068Z,1005.80
2024-02-13T04:21:47.651Z,1005.83
2024-02-13T04:22:46.195Z,1005.88
2024-02-13T04:23:46.202Z,1005.84
2024-02-13T04:24:47.324Z,1005.85
2024-02-13T04:25:46.006Z,1005.81
2024-02-13T04:26:47.565Z,1005.89
2024-02-13T05:27:54.036Z,1005.86
2024-02-13T08:22:54.145Z,1007.15
2024-02-13T08:23:00.590Z,1007.15
2024-02-13T08:29:39.191Z,1007.12
2024-02-13T08:36:22.785Z,1007.22
2024-02-13T08:46:16.282Z,1007.08
2024-02-13T08:47:17.428Z,1007.02
2024-02-13T08:52:40.894Z,1006.99
2024-02-13T08:53:41.024Z,1007.07
2024-02-13T08:54:40.252Z,1007.01
2024-02-13T08:56:18.004Z,1007.16
2024-02-13T08:56:40.353Z,1007.12
2024-02-13T08:57:40.525Z,1007.18
2024-02-13T08:58:40.228Z,1007.15
2024-02-13T08:59:41.714Z,1007.26
2024-02-13T09:02:08.198Z,1007.24
2024-02-13T09:03:09.181Z,1007.25
2024-02-13T09:04:09.211Z,1007.18
2024-02-13T09:05:09.247Z,1007.14
2024-02-13T09:06:09.361Z,1007.29
2024-02-13T09:07:09.135Z,1007.26
2024-02-13T09:08:09.105Z,1007.12
2024-02-13T09:09:20.809Z,1007.17
2024-02-13T09:10:09.079Z,1007.31
2024-02-13T09:11:09.064Z,1007.31
2024-02-13T09:12:09.370Z,1007.37
2024-02-13T09:13:09.109Z,1007.27
2024-02-13T09:14:09.029Z,1007.28
2024-02-13T09:15:09.047Z,1007.17
2024-02-13T09:16:11.438Z,1007.28
2024-02-13T09:17:09.044Z,1007.25
2024-02-13T09:18:09.090Z,1007.29
2024-02-13T09:19:09.977Z,1007.33
2024-02-13T09:20:08.980Z,1007.28
2024-02-13T09:21:08.983Z,1007.28
2024-02-13T09:22:08.928Z,1007.35
2024-02-13T09:23:08.908Z,1007.29
2024-02-13T09:24:12.472Z,1007.20
2024-02-13T09:25:08.925Z,1007.33
2024-02-13T09:26:08.885Z,1007.18
2024-02-13T09:27:08.863Z,1007.13
2024-02-13T09:28:08.864Z,1007.06
2024-02-13T09:29:08.894Z,1007.05
2024-02-13T09:30:08.895Z,1007.19
2024-02-13T09:31:08.859Z,1007.13
2024-02-13T09:32:09.034Z,1007.17
2024-02-13T09:33:08.877Z,1007.29
2024-02-13T09:34:08.918Z,1007.13
2024-02-13T09:35:09.448Z,1007.26
2024-02-13T09:36:08.795Z,1007.08
2024-02-13T09:37:08.785Z,1007.16
2024-02-13T09:38:08.727Z,1007.13
2024-02-13T09:39:08.751Z,1007.11
2024-02-13T09:40:08.712Z,1007.03
2024-02-13T09:41:08.694Z,1007.00
2024-02-13T09:42:08.677Z,1007.00
2024-02-13T09:43:08.814Z,1006.95
2024-02-13T09:44:08.660Z,1006.96
2024-02-13T09:45:08.710Z,1006.95
2024-02-13T09:46:08.638Z,1007.13
2024-02-13T09:47:08.601Z,1007.03
2024-02-13T09:48:08.692Z,1007.00
2024-02-13T09:49:08.737Z,1007.00
2024-02-13T09:50:14.969Z,1007.08
2024-02-13T09:51:08.629Z,1007.04
2024-02-13T09:52:08.544Z,1007.06
2024-02-13T09:53:08.529Z,1007.00
2024-02-13T09:54:08.684Z,1007.01
2024-02-13T09:55:08.596Z,1006.88
2024-02-13T09:56:08.516Z,1006.86
2024-02-13T09:57:08.531Z,1006.99
2024-02-13T09:58:08.469Z,1006.86
2024-02-13T09:59:08.453Z,1006.83
2024-02-13T10:00:08.473Z,1006.90
2024-02-13T10:01:08.481Z,1006.87
2024-02-13T10:02:08.420Z,1006.79
2024-02-13T10:03:08.671Z,1006.91
2024-02-13T10:04:08.495Z,1006.93
2024-02-13T10:05:10.386Z,1007.03
2024-02-13T10:06:09.397Z,1007.02
2024-02-13T10:07:08.438Z,1007.02
2024-02-13T10:08:08.334Z,1006.96
2024-02-13T10:09:08.364Z,1007.03
2024-02-13T10:10:08.564Z,1006.97
2024-02-13T10:11:08.348Z,1006.87
2024-02-13T10:12:08.296Z,1006.98
2024-02-13T10:13:08.314Z,1007.05
2024-02-13T10:14:08.303Z,1007.16
2024-02-13T10:15:08.479Z,1006.88
2024-02-13T10:16:08.242Z,1007.07
2024-02-13T10:17:08.217Z,1007.23
2024-02-13T10:18:08.375Z,1007.23
2024-02-13T10:19:08.291Z,1007.26
2024-02-13T10:20:08.329Z,1007.21
2024-02-13T10:21:08.209Z,1007.25
2024-02-13T10:22:08.163Z,1007.29
2024-02-13T10:23:08.191Z,1007.21
2024-02-13T10:24:08.768Z,1007.44
2024-02-13T10:25:08.165Z,1007.29
2024-02-13T10:26:08.137Z,1007.24
2024-02-13T10:27:08.209Z,1007.24
2024-02-13T10:28:08.081Z,1007.18
2024-02-13T10:29:08.087Z,1007.30
2024-02-13T10:30:08.132Z,1007.20
2024-02-13T10:31:08.062Z,1007.09
2024-02-13T10:32:08.039Z,1007.20
2024-02-13T10:33:08.144Z,1007.02
2024-02-13T10:34:08.016Z,1007.24
2024-02-13T10:35:08.056Z,1007.11
2024-02-13T10:36:08.961Z,1007.24
2024-02-13T10:37:07.988Z,1007.17
2024-02-13T10:38:34.741Z,1007.08
2024-02-13T10:39:08.902Z,1007.09
2024-02-13T10:48:54.680Z,1007.27
2024-02-13T10:55:58.169Z,1007.51
2024-02-13T10:57:16.711Z,1007.37
2024-02-13T10:58:27.777Z,1007.30
2024-02-13T10:58:59.087Z,1007.41
2024-02-13T11:00:11.384Z,1007.29
2024-02-13T11:00:59.147Z,1007.29
2024-02-13T11:01:59.123Z,1007.41
2024-02-13T11:02:59.093Z,1007.36
2024-02-13T11:09:31.909Z,1007.13
2024-02-13T11:14:09.021Z,1007.17
2024-02-13T11:15:10.312Z,1006.97
2024-02-13T11:16:10.211Z,1006.95
2024-02-13T11:17:17.033Z,1006.94
2024-02-13T11:18:10.048Z,1006.94
2024-02-13T11:25:04.128Z,1006.84
2024-02-13T11:29:30.588Z,1006.91
2024-02-13T11:30:37.717Z,1006.82
2024-02-13T11:34:39.662Z,1006.88
2024-02-13T11:41:08.190Z,1007.08
2024-02-13T11:42:09.151Z,1007.21
2024-02-13T11:43:09.127Z,1007.09
2024-02-13T11:44:09.806Z,1007.22
2024-02-13T11:45:09.359Z,1007.25
2024-02-13T11:46:09.142Z,1007.26
2024-02-13T11:47:09.086Z,1007.17
2024-02-13T11:48:12.303Z,1007.20
2024-02-13T11:49:09.205Z,1007.10
2024-02-13T11:50:09.108Z,1007.05
2024-02-13T11:51:09.050Z,1007.11
2024-02-13T11:52:09.036Z,1007.12
2024-02-13T11:53:08.988Z,1007.02
2024-02-13T11:54:39.471Z,1007.04
2024-02-13T11:59:23.204Z,1006.93
2024-02-13T12:00:27.936Z,1006.99
2024-02-13T12:04:39.724Z,1007.08
2024-02-13T12:05:06.124Z,1006.91
2024-02-13T12:06:00.085Z,1007.05
2024-02-13T12:06:45.166Z,1007.00
2024-02-13T12:07:45.084Z,1007.03
2024-02-13T12:08:45.051Z,1007.13
2024-02-13T12:09:45.049Z,1007.02
2024-02-13T12:10:45.017Z,1007.04
2024-02-13T12:11:45.058Z,1006.93
2024-02-13T12:12:45.255Z,1007.04
2024-02-13T12:13:45.552Z,1006.90
2024-02-13T12:14:45.067Z,1006.90
2024-02-13T12:15:44.971Z,1006.87
2024-02-13T12:16:44.963Z,1006.96
2024-02-13T12:28:16.520Z,1006.84
2024-02-13T12:29:19.244Z,1006.96
2024-02-13T12:30:18.402Z,1006.84
2024-02-13T12:31:17.460Z,1006.90
2024-02-13T12:34:19.144Z,1006.94
2024-02-13T12:35:27.949Z,1006.85
2024-02-13T12:36:15.535Z,1006.89
2024-02-13T12:49:13.453Z,1007.36
2024-02-13T12:58:10.709Z,1007.39
2024-02-13T12:59:07.280Z,1007.44
2024-02-13T13:16:59.917Z,1007.38
2024-02-13T13:17:05.270Z,1007.18
2024-02-13T13:18:16.550Z,1007.19
2024-02-13T14:15:17.938Z,1006.99
2024-02-13T14:49:42.589Z,1007.01
2024-02-13T15:31:31.022Z,1006.89
2024-02-13T15:40:24.560Z,1006.98
2024-02-13T15:41:46.404Z,1007.04
2024-02-13T15:42:43.054Z,1007.01
2024-02-13T15:43:25.510Z,1007.02
2024-02-13T15:44:46.555Z,1007.12
2024-02-13T15:45:25.727Z,1007.11
2024-02-13T15:48:13.607Z,1007.15
2024-02-13T15:53:30.376Z,1007.12
2024-02-13T15:54:57.807Z,1007.10
2024-02-13T15:55:31.565Z,1007.08
2024-02-13T15:57:51.686Z,1007.17
2024-02-13T15:58:52.667Z,1007.16
2024-02-13T15:59:52.864Z,1007.15
2024-02-13T16:00:53.534Z,1007.16
2024-02-13T16:01:52.579Z,1007.23
2024-02-13T16:06:23.754Z,1007.18
2024-02-13T16:06:43.928Z,1007.17
2024-02-13T16:07:44.890Z,1007.13
2024-02-13T16:08:44.112Z,1007.15
2024-02-13T16:09:30.917Z,1007.15
2024-02-13T16:12:17.171Z,1007.13
2024-02-13T16:12:22.534Z,1007.18
2024-02-13T16:13:30.759Z,1007.17
2024-02-13T16:14:46.691Z,1007.19
2024-02-13T16:17:12.926Z,1007.24
2024-02-13T16:18:22.674Z,1007.24
2024-02-13T16:19:15.023Z,1007.28
2024-02-13T16:20:14.266Z,1007.24
2024-02-13T16:21:13.798Z,1007.22
2024-02-13T16:23:15.393Z,1007.18
2024-02-13T16:25:02.072Z,1007.21
2024-02-13T16:26:04.854Z,1007.10
2024-02-13T16:33:49.789Z,1007.17
2024-02-13T16:34:46.340Z,1007.13
2024-02-13T16:36:57.017Z,1007.11
2024-02-13T16:37:57.875Z,1007.12
2024-02-13T16:38:57.944Z,1007.14
2024-02-13T16:40:18.177Z,1007.17
2024-02-13T16:41:02.685Z,1007.16
2024-02-13T16:41:58.133Z,1007.16
2024-02-13T16:43:00.056Z,1007.18
2024-02-13T16:43:59.345Z,1007.13
2024-02-13T16:45:01.554Z,1007.17
2024-02-13T16:45:59.511Z,1007.15
2024-02-13T16:47:21.184Z,1007.17
2024-02-13T16:47:57.998Z,1007.15
2024-02-13T16:48:57.879Z,1007.17
2024-02-13T16:49:57.907Z,1007.17
2024-02-13T16:51:24.042Z,1007.15
2024-02-13T17:10:46.080Z,1007.27
2024-02-13T19:16:17.433Z,1007.25
2024-02-13T19:17:18.374Z,1007.17
2024-02-13T19:31:43.770Z,1007.12
2024-02-13T20:46:43.428Z,1006.90
2024-02-13T20:47:17.851Z,1006.63
2024-02-13T20:51:46.256Z,1006.63
2024-02-13T20:53:52.466Z,1006.61
2024-02-13T20:54:09.875Z,1006.67
2024-02-13T20:55:42.733Z,1006.62
2024-02-13T20:56:25.295Z,1006.62
2024-02-13T20:57:01.346Z,1006.64
2024-02-13T20:57:57.923Z,1006.64
2024-02-13T21:09:09.774Z,1006.72
2024-02-13T21:09:15.833Z,1006.61
2024-02-13T21:10:15.790Z,1006.57
2024-02-13T21:11:29.673Z,1006.59
2024-02-13T21:12:22.117Z,1006.49
2024-02-13T21:13:15.808Z,1006.61
2024-02-13T21:14:15.172Z,1006.55
2024-02-13T21:15:16.797Z,1006.61
2024-02-13T21:24:05.383Z,1006.65
2024-02-13T21:24:15.940Z,1006.53
2024-02-13T21:25:15.673Z,1006.63
2024-02-13T21:26:22.337Z,1006.56
2024-02-13T21:27:22.636Z,1006.59
2024-02-13T21:28:16.370Z,1006.53
2024-02-13T21:29:15.672Z,1006.54
2024-02-13T21:30:16.650Z,1006.52
2024-02-13T21:31:16.129Z,1006.52
2024-02-13T21:32:18.907Z,1006.50
2024-02-13T21:33:16.182Z,1006.48
2024-02-13T21:40:03.105Z,1006.42
2024-02-13T21:40:15.728Z,1006.37
2024-02-13T21:41:10.424Z,1006.43
2024-02-13T21:42:12.895Z,1006.42
2024-02-13T21:43:08.705Z,1006.47
2024-02-13T21:44:08.673Z,1006.45
2024-02-13T21:45:08.739Z,1006.43
2024-02-13T21:46:09.124Z,1006.47
2024-02-13T21:47:09.354Z,1006.36
2024-02-13T21:48:15.880Z,1006.39
2024-02-13T21:52:55.220Z,1006.38
2024-02-13T21:53:01.966Z,1006.37
2024-02-13T21:54:01.110Z,1006.48
2024-02-13T21:55:00.977Z,1006.42
2024-02-13T21:56:00.958Z,1006.39
2024-02-13T21:57:01.000Z,1006.35
2024-02-13T21:58:00.993Z,1006.42
2024-02-13T21:59:07.948Z,1006.37
2024-02-13T22:00:00.864Z,1006.36
2024-02-13T22:01:00.784Z,1006.29
2024-02-13T22:02:00.751Z,1006.38
2024-02-13T22:03:00.774Z,1006.23
2024-02-13T22:04:02.281Z,1006.20
2024-02-13T22:05:00.725Z,1006.25
2024-02-13T22:06:04.164Z,1006.21
2024-02-13T22:07:12.281Z,1006.22
2024-02-13T22:08:00.872Z,1006.16
2024-02-13T22:09:00.854Z,1006.24
2024-02-13T22:10:03.635Z,1006.27
2024-02-13T22:11:00.876Z,1006.23
2024-02-13T22:12:01.310Z,1006.26
2024-02-13T22:13:01.206Z,1006.26
2024-02-13T22:14:00.722Z,1006.15
2024-02-13T22:15:00.813Z,1006.23
2024-02-13T22:16:05.475Z,1006.26
2024-02-13T22:17:00.787Z,1006.09
2024-02-13T22:18:00.852Z,1006.10
2024-02-13T22:19:00.657Z,1006.14
2024-02-13T22:20:00.708Z,1006.12
2024-02-13T22:21:00.520Z,1006.14
2024-02-13T22:22:00.692Z,1006.19
2024-02-13T22:23:00.468Z,1006.15
2024-02-13T22:24:00.514Z,1006.25
2024-02-13T22:25:00.473Z,1006.14
2024-02-13T22:26:00.440Z,1006.08
2024-02-13T22:27:00.476Z,1006.08
2024-02-13T22:28:02.029Z,1006.08
2024-02-13T22:29:01.913Z,1006.09
2024-02-13T22:30:01.224Z,1006.03
2024-02-13T22:31:00.363Z,1005.99
2024-02-13T22:32:00.600Z,1006.01
2024-02-13T22:33:00.405Z,1006.22
2024-02-13T22:34:00.565Z,1006.09
2024-02-13T22:35:00.431Z,1006.04
2024-02-13T22:36:00.349Z,1006.04
2024-02-13T22:37:00.282Z,1006.11
2024-02-13T22:38:00.432Z,1006.00
2024-02-13T22:39:00.409Z,1006.05
2024-02-13T22:40:00.384Z,1005.97
2024-02-13T22:41:00.254Z,1006.11
2024-02-13T22:42:01.159Z,1005.92
2024-02-13T22:43:00.208Z,1006.05
2024-02-13T22:44:00.187Z,1006.04
2024-02-13T22:45:00.465Z,1006.01
2024-02-13T22:46:00.195Z,1006.07
2024-02-13T22:47:00.182Z,1005.99
2024-02-13T22:48:00.382Z,1006.15
2024-02-13T22:49:00.172Z,1005.98
2024-02-13T22:50:00.258Z,1006.05
2024-02-13T22:51:00.390Z,1005.97
2024-02-13T22:52:00.138Z,1005.99
2024-02-13T22:53:00.285Z,1005.93
2024-02-13T22:54:00.332Z,1006.08
2024-02-13T22:55:03.411Z,1006.09
2024-02-13T22:56:00.039Z,1006.03
2024-02-13T22:57:00.393Z,1006.09
2024-02-13T22:58:00.782Z,1006.04
2024-02-13T22:59:00.237Z,1006.00
2024-02-13T23:00:07.020Z,1006.03
2024-02-13T23:01:00.010Z,1006.07
2024-02-13T23:02:00.669Z,1005.89
2024-02-13T23:03:00.001Z,1005.89
2024-02-13T23:03:59.961Z,1006.06
2024-02-13T23:04:59.957Z,1005.98
2024-02-13T23:06:00.640Z,1006.00
2024-02-13T23:07:00.666Z,1006.02
2024-02-13T23:08:00.104Z,1005.98
2024-02-13T23:09:00.061Z,1006.04
2024-02-13T23:09:59.863Z,1006.14
2024-02-13T23:11:00.571Z,1006.05
2024-02-13T23:11:59.899Z,1005.95
2024-02-13T23:13:00.080Z,1006.08
2024-02-13T23:13:59.838Z,1005.79
2024-02-13T23:15:02.904Z,1005.96
2024-02-13T23:16:00.122Z,1005.96
2024-02-13T23:17:00.038Z,1005.93
2024-02-13T23:17:59.870Z,1005.96
2024-02-13T23:19:00.064Z,1005.95
2024-02-13T23:19:59.804Z,1005.85
2024-02-13T23:20:59.765Z,1005.75
2024-02-13T23:21:59.725Z,1005.82
2024-02-13T23:22:59.726Z,1005.86
2024-02-13T23:23:59.745Z,1005.91
2024-02-13T23:24:59.709Z,1005.77
2024-02-13T23:25:59.663Z,1005.83
2024-02-13T23:26:59.692Z,1005.85
2024-02-13T23:27:59.650Z,1005.61
2024-02-13T23:28:59.901Z,1005.73
2024-02-13T23:29:59.932Z,1005.79
2024-02-13T23:30:59.627Z,1005.70
2024-02-13T23:31:59.608Z,1005.63
2024-02-13T23:32:59.661Z,1005.54
2024-02-13T23:33:59.955Z,1005.73
2024-02-13T23:34:59.657Z,1005.94
2024-02-13T23:35:59.571Z,1005.88
2024-02-13T23:36:59.534Z,1005.69
2024-02-13T23:37:59.523Z,1005.67
2024-02-13T23:38:59.530Z,1005.70
2024-02-13T23:39:59.477Z,1005.47
2024-02-13T23:40:59.486Z,1005.64
2024-02-13T23:41:59.522Z,1005.49
2024-02-13T23:42:59.443Z,1005.55
2024-02-13T23:43:59.458Z,1005.57
2024-02-13T23:44:59.536Z,1005.49
2024-02-13T23:45:59.426Z,1005.62
2024-02-13T23:46:59.408Z,1005.47
2024-02-13T23:47:59.445Z,1005.25
2024-02-13T23:59:58.732Z,1005.53
